createdAt,value
2023-07-08T00:01:51.560Z,99768.66
2023-07-08T00:06:53.375Z,99821.31
2023-07-08T00:11:55.175Z,99786.88
2023-07-08T00:16:56.909Z,99810.38
2023-07-08T00:21:58.686Z,99789.19
2023-07-08T00:27:00.386Z,99851.56
2023-07-08T00:32:02.138Z,99826.84
2023-07-08T00:37:06.204Z,99796.16
2023-07-08T00:42:16.623Z,99812.09
2023-07-08T00:47:19.000Z,99783.44
2023-07-08T00:52:25.317Z,99803.03
2023-07-08T00:57:32.994Z,99818.78
2023-07-08T01:02:39.535Z,99749.38
2023-07-08T01:07:45.276Z,99808.00
2023-07-08T01:12:50.556Z,99820.97
2023-07-08T01:17:54.646Z,99782.72
2023-07-08T01:22:56.565Z,99807.91
2023-07-08T01:27:58.990Z,99843.25
2023-07-08T01:33:05.879Z,99802.41
2023-07-08T01:38:11.666Z,99791.34
2023-07-08T01:43:13.369Z,99820.53
2023-07-08T01:48:19.638Z,99851.16
2023-07-08T01:53:28.655Z,99786.84
2023-07-08T01:58:30.452Z,99834.09
2023-07-08T02:03:32.454Z,99791.19
2023-07-08T02:08:34.340Z,99852.09
2023-07-08T02:13:36.191Z,99847.09
2023-07-08T02:18:37.939Z,99802.63
2023-07-08T02:23:40.593Z,99831.22
2023-07-08T02:28:42.434Z,99794.78
2023-07-08T02:33:44.500Z,99791.84
2023-07-08T02:38:46.273Z,99795.13
2023-07-08T02:43:48.086Z,99774.09
2023-07-08T02:48:49.870Z,99799.03
2023-07-08T02:53:51.781Z,99778.44
2023-07-08T02:58:54.564Z,99729.84
2023-07-08T03:03:59.592Z,99780.63
2023-07-08T03:09:01.372Z,99782.16
2023-07-08T03:14:03.985Z,99811.50
2023-07-08T03:19:06.863Z,99754.44
2023-07-08T03:24:14.734Z,99867.66
2023-07-08T03:29:19.499Z,99859.16
2023-07-08T03:34:21.243Z,99861.31
2023-07-08T03:39:25.242Z,99821.06
2023-07-08T03:44:27.023Z,99848.94
2023-07-08T03:49:28.790Z,99818.81
2023-07-08T03:54:30.514Z,99843.84
2023-07-08T03:59:32.236Z,99828.31
2023-07-08T04:04:34.000Z,99839.06
2023-07-08T04:09:35.730Z,99755.78
2023-07-08T04:14:37.579Z,99794.34
2023-07-08T04:19:40.583Z,99861.97
2023-07-08T04:24:42.313Z,99918.59
2023-07-08T04:29:45.248Z,99917.56
2023-07-08T04:34:46.942Z,99871.78
2023-07-08T04:39:48.764Z,100003.06
2023-07-08T04:44:50.870Z,99923.81
2023-07-08T04:49:52.656Z,100053.75
2023-07-08T04:54:54.446Z,99996.63
2023-07-08T04:59:56.183Z,100069.97
2023-07-08T05:04:57.890Z,100042.69
2023-07-08T05:09:59.764Z,100008.81
2023-07-08T05:15:01.631Z,99959.19
2023-07-08T05:20:04.624Z,99860.31
2023-07-08T05:25:07.384Z,99894.34
2023-07-08T05:30:12.179Z,99859.63
2023-07-08T05:35:14.193Z,99898.19
2023-07-08T05:40:16.561Z,99890.81
2023-07-08T05:45:18.375Z,99950.97
2023-07-08T05:50:20.281Z,99937.75
2023-07-08T05:55:22.012Z,99945.19
2023-07-08T06:00:33.986Z,99890.22
2023-07-08T06:05:40.795Z,99913.56
2023-07-08T06:10:45.461Z,99911.09
2023-07-08T06:15:47.391Z,99938.13
2023-07-08T06:20:57.728Z,100013.91
2023-07-08T06:25:59.730Z,99972.31
2023-07-08T06:31:01.814Z,99959.00
2023-07-08T06:36:04.064Z,99950.44
2023-07-08T06:41:05.794Z,99959.34
2023-07-08T06:46:07.980Z,100006.69
2023-07-08T06:51:09.815Z,99963.28
2023-07-08T06:56:11.693Z,99989.34
2023-07-08T07:01:14.372Z,99942.31
2023-07-08T07:06:16.179Z,100009.25
2023-07-08T07:11:20.333Z,99960.81
2023-07-08T07:16:22.217Z,100017.88
2023-07-08T07:21:24.023Z,99966.94
2023-07-08T07:26:25.758Z,99992.81
2023-07-08T07:31:27.609Z,99953.09
2023-07-08T07:36:30.265Z,99992.88
2023-07-08T07:41:32.009Z,100013.44
2023-07-08T07:46:33.995Z,99989.94
2023-07-08T07:51:35.761Z,100061.38
2023-07-08T07:56:37.489Z,100046.78
2023-07-08T08:01:39.370Z,100090.44
2023-07-08T08:06:41.365Z,100051.19
2023-07-08T08:11:43.100Z,100047.00
2023-07-08T08:16:45.566Z,100083.84
2023-07-08T08:21:47.419Z,100051.53
2023-07-08T08:26:49.300Z,100037.25
2023-07-08T08:31:51.937Z,100041.34
2023-07-08T08:36:56.808Z,100095.25
2023-07-08T08:41:59.005Z,100072.88
2023-07-08T08:47:20.950Z,100042.44
2023-07-08T08:52:22.797Z,100081.78
2023-07-08T08:57:48.069Z,100058.34
2023-07-08T09:02:49.735Z,100093.75
2023-07-08T09:08:03.550Z,100094.41
2023-07-08T09:13:07.776Z,100082.06
2023-07-08T09:18:26.821Z,100078.88
2023-07-08T09:23:33.618Z,100061.53
2023-07-08T09:28:44.460Z,100070.88
2023-07-08T09:33:46.208Z,100046.00
2023-07-08T09:38:49.994Z,100035.94
2023-07-08T09:43:51.869Z,100062.81
2023-07-08T09:48:53.591Z,100062.28
2023-07-08T09:53:55.648Z,100036.63
2023-07-08T09:58:58.151Z,100031.84
2023-07-08T10:04:01.942Z,100007.91
2023-07-08T10:09:19.874Z,100001.38
2023-07-08T10:14:26.638Z,100024.91
2023-07-08T10:19:28.649Z,99999.59
2023-07-08T10:24:55.293Z,100007.97
2023-07-08T10:30:23.735Z,100008.53
2023-07-08T10:35:38.594Z,100005.19
2023-07-08T10:40:49.330Z,100008.88
2023-07-08T10:45:57.207Z,100007.50
2023-07-08T10:51:14.185Z,100023.47
2023-07-08T10:56:25.134Z,99965.75
2023-07-08T11:06:28.256Z,99957.94
2023-07-08T11:11:52.340Z,99968.94
2023-07-08T11:17:07.306Z,99957.00
2023-07-08T11:22:12.755Z,99978.69
2023-07-08T11:27:28.791Z,100005.91
2023-07-08T11:32:34.098Z,99957.97
2023-07-08T11:37:36.166Z,99994.53
2023-07-08T11:42:58.328Z,99994.22
2023-07-08T11:48:06.838Z,99945.50
2023-07-08T11:53:14.712Z,99992.69
2023-07-08T11:58:27.405Z,99963.59
2023-07-08T12:03:40.572Z,99954.63
2023-07-08T12:08:43.216Z,99934.75
2023-07-08T12:13:44.917Z,99925.94
2023-07-08T12:18:47.712Z,99946.72
2023-07-08T12:23:49.472Z,99949.41
2023-07-08T12:28:51.124Z,99919.00
2023-07-08T12:33:53.123Z,99917.38
2023-07-08T12:38:57.675Z,99908.16
2023-07-08T12:44:00.766Z,99913.50
2023-07-08T12:49:02.479Z,99911.16
2023-07-08T12:54:04.248Z,99921.47
2023-07-08T12:59:08.009Z,99924.25
2023-07-08T13:04:13.030Z,99915.22
2023-07-08T13:09:35.079Z,99894.34
2023-07-08T13:14:37.310Z,99921.72
2023-07-08T13:19:39.499Z,99931.09
2023-07-08T13:24:41.727Z,99907.88
2023-07-08T13:29:43.807Z,99906.28
2023-07-08T13:34:45.491Z,99901.00
2023-07-08T13:39:47.367Z,99923.94
2023-07-08T13:44:50.232Z,99892.91
2023-07-08T13:50:18.395Z,99895.56
2023-07-08T13:55:30.382Z,99918.25
2023-07-08T14:00:32.792Z,99914.28
2023-07-08T14:05:34.637Z,99905.81
2023-07-08T14:10:36.372Z,99869.09
2023-07-08T14:15:40.069Z,99888.94
2023-07-08T14:20:42.092Z,99896.44
2023-07-08T14:25:43.832Z,99882.28
2023-07-08T14:30:48.912Z,99899.16
2023-07-08T14:35:51.232Z,99892.75
2023-07-08T14:40:52.864Z,99895.84
2023-07-08T14:45:57.679Z,99886.22
2023-07-08T14:51:00.088Z,99881.75
2023-07-08T14:56:14.743Z,99886.22
2023-07-08T15:01:21.529Z,99898.63
2023-07-08T15:06:24.306Z,99901.66
2023-07-08T15:11:27.619Z,99892.91
2023-07-08T15:16:29.389Z,99860.28
2023-07-08T15:21:31.051Z,99871.50
2023-07-08T15:26:32.724Z,99872.72
2023-07-08T15:31:35.863Z,99869.91
2023-07-08T15:36:37.608Z,99882.28
2023-07-08T15:41:39.985Z,99877.69
2023-07-08T15:46:49.784Z,99886.06
2023-07-08T15:51:52.009Z,99868.06
2023-07-08T15:56:54.878Z,99882.38
2023-07-08T16:02:03.977Z,99891.38
2023-07-08T16:07:05.972Z,99859.88
2023-07-08T16:12:12.512Z,99887.84
2023-07-08T16:17:14.341Z,99874.78
2023-07-08T16:22:16.039Z,99896.53
2023-07-08T16:27:17.962Z,99890.44
2023-07-08T16:32:24.211Z,99865.44
2023-07-08T16:37:25.976Z,99860.13
2023-07-08T16:42:27.896Z,99883.22
2023-07-08T16:47:29.655Z,99901.59
2023-07-08T16:52:32.945Z,99883.00
2023-07-08T16:57:34.688Z,99892.06
2023-07-08T17:02:37.087Z,99887.72
2023-07-08T17:07:39.011Z,99873.09
2023-07-08T17:12:42.069Z,99883.22
2023-07-08T17:17:50.072Z,99862.50
2023-07-08T17:22:51.921Z,99888.28
2023-07-08T17:27:55.302Z,99883.47
2023-07-08T17:32:59.560Z,99914.91
2023-07-08T17:38:01.268Z,99889.59
2023-07-08T17:43:03.262Z,99922.06
2023-07-08T17:48:09.364Z,99925.50
2023-07-08T17:53:17.817Z,99930.00
2023-07-08T17:58:20.024Z,99931.41
2023-07-08T18:03:21.867Z,99911.91
2023-07-08T18:08:23.634Z,99927.22
2023-07-08T18:13:28.204Z,99921.13
2023-07-08T18:18:30.285Z,99911.78
2023-07-08T18:23:35.964Z,99920.81
2023-07-08T18:28:37.916Z,99959.88
2023-07-08T18:33:39.631Z,99950.00
2023-07-08T18:38:41.730Z,99950.09
2023-07-08T18:43:43.610Z,99950.47
2023-07-08T18:48:45.676Z,99960.44
2023-07-08T18:53:47.436Z,99961.16
2023-07-08T18:58:49.146Z,99945.34
2023-07-08T19:03:51.944Z,99946.47
2023-07-08T19:08:53.732Z,99957.06
2023-07-08T19:13:56.209Z,99964.47
2023-07-08T19:18:58.054Z,99961.84
2023-07-08T19:24:00.447Z,99968.47
2023-07-08T19:29:02.229Z,99957.28
2023-07-08T19:34:06.360Z,100000.28
2023-07-08T19:39:10.983Z,99954.53
2023-07-08T19:44:21.285Z,99984.50
2023-07-08T19:49:23.078Z,99985.13
2023-07-08T19:54:25.466Z,99991.03
2023-07-08T19:59:28.865Z,100037.13
2023-07-08T20:04:30.579Z,100009.22
2023-07-08T20:09:32.370Z,100045.16
2023-07-08T20:14:35.782Z,100072.94
2023-07-08T20:19:37.498Z,100066.09
2023-07-08T20:24:39.202Z,100072.63
2023-07-08T20:29:40.926Z,100083.91
2023-07-08T20:34:42.769Z,100090.25
2023-07-08T20:39:44.575Z,100082.38
2023-07-08T20:44:46.333Z,100084.94
2023-07-08T20:49:48.075Z,100088.25
2023-07-08T20:54:51.400Z,100108.25
2023-07-08T20:59:53.147Z,100091.06
2023-07-08T21:04:55.018Z,100097.84
2023-07-08T21:09:56.875Z,100094.75
2023-07-08T21:14:58.575Z,100091.31
2023-07-08T21:20:00.298Z,100100.28
2023-07-08T21:25:02.025Z,100088.91
2023-07-08T21:30:10.921Z,100092.78
2023-07-08T21:35:12.945Z,100091.22
2023-07-08T21:40:30.412Z,100078.78
2023-07-08T21:45:37.121Z,100093.56
2023-07-08T21:50:58.760Z,100089.22
2023-07-08T21:56:01.737Z,100079.25
2023-07-08T22:01:03.596Z,100103.28
2023-07-08T22:06:05.772Z,100096.03
2023-07-08T22:11:29.509Z,100097.41
2023-07-08T22:16:32.254Z,100100.19
2023-07-08T22:21:39.596Z,100086.66
2023-07-08T22:26:44.688Z,100115.81
2023-07-08T22:31:46.562Z,100082.16
2023-07-08T22:36:48.354Z,100121.81
2023-07-08T22:41:58.159Z,100094.28
2023-07-08T22:47:01.404Z,100103.53
2023-07-08T22:52:03.482Z,100098.72
2023-07-08T22:57:05.868Z,100110.09
2023-07-08T23:02:07.750Z,100108.69
2023-07-08T23:07:12.113Z,100111.47
2023-07-08T23:12:13.849Z,100125.69
2023-07-08T23:17:15.675Z,100112.47
2023-07-08T23:22:20.852Z,100119.09
2023-07-08T23:27:24.251Z,100104.28
2023-07-08T23:32:25.976Z,100146.25
2023-07-08T23:37:30.478Z,100112.13
2023-07-08T23:42:32.203Z,100139.06
2023-07-08T23:47:34.665Z,100131.41
2023-07-08T23:52:36.569Z,100141.06
2023-07-08T23:57:38.412Z,100141.16
